sensor_id;sensor_type;location;lat;lon;timestamp;P1;durP1;ratioP1;P2;durP2;ratioP2
52318;SDS011;38258;51.148;14.068;2023-01-09T00:02:23;18.58;;;7.53;;
52318;SDS011;38258;51.148;14.068;2023-01-09T00:04:51;13.10;;;5.93;;
52318;SDS011;38258;51.148;14.068;2023-01-09T00:07:18;14.68;;;5.65;;
52318;SDS011;38258;51.148;14.068;2023-01-09T00:09:44;13.65;;;7.15;;
52318;SDS011;38258;51.148;14.068;2023-01-09T00:12:11;12.45;;;7.18;;
52318;SDS011;38258;51.148;14.068;2023-01-09T00:14:38;12.82;;;6.50;;
52318;SDS011;38258;51.148;14.068;2023-01-09T00:17:04;16.73;;;6.40;;
52318;SDS011;38258;51.148;14.068;2023-01-09T00:19:31;13.50;;;5.45;;
52318;SDS011;38258;51.148;14.068;2023-01-09T00:21:59;9.82;;;5.03;;
52318;SDS011;38258;51.148;14.068;2023-01-09T00:24:26;14.13;;;7.47;;
52318;SDS011;38258;51.148;14.068;2023-01-09T00:26:53;11.05;;;6.32;;
52318;SDS011;38258;51.148;14.068;2023-01-09T00:29:19;11.70;;;5.32;;
52318;SDS011;38258;51.148;14.068;2023-01-09T00:31:46;16.83;;;6.80;;
52318;SDS011;38258;51.148;14.068;2023-01-09T00:34:13;11.98;;;5.25;;
52318;SDS011;38258;51.148;14.068;2023-01-09T00:36:40;11.15;;;7.03;;
52318;SDS011;38258;51.148;14.068;2023-01-09T00:39:08;12.23;;;6.15;;
52318;SDS011;38258;51.148;14.068;2023-01-09T00:41:36;15.13;;;7.30;;
52318;SDS011;38258;51.148;14.068;2023-01-09T00:44:06;13.95;;;6.80;;
52318;SDS011;38258;51.148;14.068;2023-01-09T00:46:38;12.27;;;5.63;;
52318;SDS011;38258;51.148;14.068;2023-01-09T00:49:09;13.00;;;6.25;;
52318;SDS011;38258;51.148;14.068;2023-01-09T00:51:37;16.45;;;6.50;;
52318;SDS011;38258;51.148;14.068;2023-01-09T00:54:06;17.15;;;6.25;;
52318;SDS011;38258;51.148;14.068;2023-01-09T00:56:35;14.57;;;6.35;;
52318;SDS011;38258;51.148;14.068;2023-01-09T00:59:03;10.90;;;6.25;;
52318;SDS011;38258;51.148;14.068;2023-01-09T01:01:31;12.32;;;6.20;;
52318;SDS011;38258;51.148;14.068;2023-01-09T01:03:58;19.38;;;6.00;;
52318;SDS011;38258;51.148;14.068;2023-01-09T01:06:45;13.55;;;6.25;;
52318;SDS011;38258;51.148;14.068;2023-01-09T01:11:57;7.55;;;4.88;;
52318;SDS011;38258;51.148;14.068;2023-01-09T01:14:23;12.63;;;6.13;;
52318;SDS011;38258;51.148;14.068;2023-01-09T01:16:51;10.85;;;5.57;;
52318;SDS011;38258;51.148;14.068;2023-01-09T01:19:18;8.60;;;4.82;;
52318;SDS011;38258;51.148;14.068;2023-01-09T01:21:45;13.73;;;6.30;;
52318;SDS011;38258;51.148;14.068;2023-01-09T01:24:12;13.40;;;6.05;;
52318;SDS011;38258;51.148;14.068;2023-01-09T01:26:42;11.30;;;6.45;;
52318;SDS011;38258;51.148;14.068;2023-01-09T01:29:10;14.60;;;7.60;;
52318;SDS011;38258;51.148;14.068;2023-01-09T01:31:37;14.73;;;7.18;;
52318;SDS011;38258;51.148;14.068;2023-01-09T01:34:04;9.73;;;5.20;;
52318;SDS011;38258;51.148;14.068;2023-01-09T01:36:31;11.70;;;5.63;;
52318;SDS011;38258;51.148;14.068;2023-01-09T01:38:58;11.73;;;6.38;;
52318;SDS011;38258;51.148;14.068;2023-01-09T01:41:25;13.25;;;6.68;;
52318;SDS011;38258;51.148;14.068;2023-01-09T01:43:54;14.60;;;7.28;;
52318;SDS011;38258;51.148;14.068;2023-01-09T01:46:24;12.77;;;5.35;;
52318;SDS011;38258;51.148;14.068;2023-01-09T01:48:52;11.80;;;6.43;;
52318;SDS011;38258;51.148;14.068;2023-01-09T01:51:24;12.10;;;6.07;;
52318;SDS011;38258;51.148;14.068;2023-01-09T01:53:54;12.32;;;5.65;;
52318;SDS011;38258;51.148;14.068;2023-01-09T01:56:26;13.77;;;6.03;;
52318;SDS011;38258;51.148;14.068;2023-01-09T01:58:57;9.65;;;4.75;;
52318;SDS011;38258;51.148;14.068;2023-01-09T02:01:30;12.13;;;5.47;;
52318;SDS011;38258;51.148;14.068;2023-01-09T02:03:58;12.75;;;6.57;;
52318;SDS011;38258;51.148;14.068;2023-01-09T02:06:27;10.90;;;5.80;;
52318;SDS011;38258;51.148;14.068;2023-01-09T02:08:55;16.70;;;7.78;;
52318;SDS011;38258;51.148;14.068;2023-01-09T02:11:22;19.00;;;7.03;;
52318;SDS011;38258;51.148;14.068;2023-01-09T02:13:49;10.43;;;6.88;;
52318;SDS011;38258;51.148;14.068;2023-01-09T02:16:20;16.48;;;7.20;;
52318;SDS011;38258;51.148;14.068;2023-01-09T02:19:01;12.85;;;5.97;;
52318;SDS011;38258;51.148;14.068;2023-01-09T02:21:38;14.38;;;7.80;;
52318;SDS011;38258;51.148;14.068;2023-01-09T02:24:19;8.43;;;3.90;;
52318;SDS011;38258;51.148;14.068;2023-01-09T02:27:09;9.52;;;5.57;;
52318;SDS011;38258;51.148;14.068;2023-01-09T02:32:57;12.65;;;7.38;;
52318;SDS011;38258;51.148;14.068;2023-01-09T02:35:38;12.40;;;6.40;;
52318;SDS011;38258;51.148;14.068;2023-01-09T02:38:16;11.68;;;5.70;;
52318;SDS011;38258;51.148;14.068;2023-01-09T02:40:49;15.98;;;6.72;;
52318;SDS011;38258;51.148;14.068;2023-01-09T02:43:21;14.50;;;6.82;;
52318;SDS011;38258;51.148;14.068;2023-01-09T02:45:51;11.98;;;6.40;;
52318;SDS011;38258;51.148;14.068;2023-01-09T02:48:17;11.70;;;6.05;;
52318;SDS011;38258;51.148;14.068;2023-01-09T02:50:46;13.68;;;5.10;;
52318;SDS011;38258;51.148;14.068;2023-01-09T02:56:27;11.40;;;5.40;;
52318;SDS011;38258;51.148;14.068;2023-01-09T02:59:14;13.57;;;6.47;;
52318;SDS011;38258;51.148;14.068;2023-01-09T03:01:53;9.68;;;5.97;;
52318;SDS011;38258;51.148;14.068;2023-01-09T03:04:29;11.40;;;5.13;;
52318;SDS011;38258;51.148;14.068;2023-01-09T03:07:10;8.18;;;4.60;;
52318;SDS011;38258;51.148;14.068;2023-01-09T03:09:44;12.48;;;6.03;;
52318;SDS011;38258;51.148;14.068;2023-01-09T03:12:15;14.13;;;5.45;;
52318;SDS011;38258;51.148;14.068;2023-01-09T03:14:46;11.70;;;5.95;;
52318;SDS011;38258;51.148;14.068;2023-01-09T03:17:18;13.88;;;5.82;;
52318;SDS011;38258;51.148;14.068;2023-01-09T03:19:51;17.67;;;6.82;;
52318;SDS011;38258;51.148;14.068;2023-01-09T03:22:19;11.25;;;6.88;;
52318;SDS011;38258;51.148;14.068;2023-01-09T03:24:46;15.10;;;6.82;;
52318;SDS011;38258;51.148;14.068;2023-01-09T03:27:13;9.95;;;5.35;;
52318;SDS011;38258;51.148;14.068;2023-01-09T03:29:40;12.60;;;6.88;;
52318;SDS011;38258;51.148;14.068;2023-01-09T03:32:07;9.88;;;6.80;;
52318;SDS011;38258;51.148;14.068;2023-01-09T03:34:35;11.55;;;6.72;;
52318;SDS011;38258;51.148;14.068;2023-01-09T03:37:02;10.50;;;5.25;;
52318;SDS011;38258;51.148;14.068;2023-01-09T03:39:29;22.38;;;6.10;;
52318;SDS011;38258;51.148;14.068;2023-01-09T03:41:56;10.98;;;6.32;;
52318;SDS011;38258;51.148;14.068;2023-01-09T03:44:23;19.08;;;8.10;;
52318;SDS011;38258;51.148;14.068;2023-01-09T03:46:50;14.45;;;6.20;;
52318;SDS011;38258;51.148;14.068;2023-01-09T03:49:17;14.20;;;6.82;;
52318;SDS011;38258;51.148;14.068;2023-01-09T03:51:45;22.70;;;9.07;;
52318;SDS011;38258;51.148;14.068;2023-01-09T03:54:12;8.90;;;4.43;;
52318;SDS011;38258;51.148;14.068;2023-01-09T03:56:39;16.08;;;7.50;;
52318;SDS011;38258;51.148;14.068;2023-01-09T03:59:06;13.43;;;7.20;;
52318;SDS011;38258;51.148;14.068;2023-01-09T04:01:33;9.07;;;4.28;;
52318;SDS011;38258;51.148;14.068;2023-01-09T04:03:59;10.15;;;5.55;;
52318;SDS011;38258;51.148;14.068;2023-01-09T04:06:26;15.18;;;7.07;;
52318;SDS011;38258;51.148;14.068;2023-01-09T04:08:54;13.73;;;7.47;;
52318;SDS011;38258;51.148;14.068;2023-01-09T04:11:21;14.68;;;6.32;;
52318;SDS011;38258;51.148;14.068;2023-01-09T04:13:48;11.38;;;5.85;;
52318;SDS011;38258;51.148;14.068;2023-01-09T04:16:15;13.43;;;6.68;;
52318;SDS011;38258;51.148;14.068;2023-01-09T04:18:41;15.00;;;7.72;;
52318;SDS011;38258;51.148;14.068;2023-01-09T04:21:08;13.75;;;6.28;;
52318;SDS011;38258;51.148;14.068;2023-01-09T04:23:38;11.10;;;7.15;;
52318;SDS011;38258;51.148;14.068;2023-01-09T04:26:06;16.60;;;6.93;;
52318;SDS011;38258;51.148;14.068;2023-01-09T04:28:33;12.18;;;6.47;;
52318;SDS011;38258;51.148;14.068;2023-01-09T04:31:00;13.77;;;5.18;;
52318;SDS011;38258;51.148;14.068;2023-01-09T04:33:27;14.15;;;6.45;;
52318;SDS011;38258;51.148;14.068;2023-01-09T04:35:54;14.38;;;5.93;;
52318;SDS011;38258;51.148;14.068;2023-01-09T04:38:23;14.65;;;5.57;;
52318;SDS011;38258;51.148;14.068;2023-01-09T04:40:51;13.00;;;5.07;;
52318;SDS011;38258;51.148;14.068;2023-01-09T04:43:19;18.05;;;7.25;;
52318;SDS011;38258;51.148;14.068;2023-01-09T04:45:46;9.27;;;5.85;;
52318;SDS011;38258;51.148;14.068;2023-01-09T04:48:13;10.32;;;7.07;;
52318;SDS011;38258;51.148;14.068;2023-01-09T04:50:39;12.57;;;6.50;;
52318;SDS011;38258;51.148;14.068;2023-01-09T04:53:06;12.43;;;5.15;;
52318;SDS011;38258;51.148;14.068;2023-01-09T04:55:33;10.68;;;6.07;;
52318;SDS011;38258;51.148;14.068;2023-01-09T04:58:00;18.45;;;8.00;;
52318;SDS011;38258;51.148;14.068;2023-01-09T05:00:28;9.60;;;5.25;;
52318;SDS011;38258;51.148;14.068;2023-01-09T05:02:55;12.90;;;6.00;;
52318;SDS011;38258;51.148;14.068;2023-01-09T05:05:22;15.55;;;6.22;;
52318;SDS011;38258;51.148;14.068;2023-01-09T05:07:50;7.70;;;5.40;;
52318;SDS011;38258;51.148;14.068;2023-01-09T05:10:16;12.52;;;6.30;;
52318;SDS011;38258;51.148;14.068;2023-01-09T05:12:43;13.02;;;5.75;;
52318;SDS011;38258;51.148;14.068;2023-01-09T05:15:10;18.05;;;6.68;;
52318;SDS011;38258;51.148;14.068;2023-01-09T05:17:38;10.35;;;5.60;;
52318;SDS011;38258;51.148;14.068;2023-01-09T05:20:05;19.88;;;7.88;;
52318;SDS011;38258;51.148;14.068;2023-01-09T05:22:33;19.05;;;8.30;;
52318;SDS011;38258;51.148;14.068;2023-01-09T05:24:59;11.45;;;6.35;;
52318;SDS011;38258;51.148;14.068;2023-01-09T05:27:26;16.45;;;7.43;;
52318;SDS011;38258;51.148;14.068;2023-01-09T05:29:54;14.13;;;6.60;;
52318;SDS011;38258;51.148;14.068;2023-01-09T05:32:21;15.68;;;6.30;;
52318;SDS011;38258;51.148;14.068;2023-01-09T05:34:49;16.23;;;6.70;;
52318;SDS011;38258;51.148;14.068;2023-01-09T05:37:16;20.15;;;7.55;;
52318;SDS011;38258;51.148;14.068;2023-01-09T05:39:43;16.23;;;7.18;;
52318;SDS011;38258;51.148;14.068;2023-01-09T05:42:09;15.73;;;6.68;;
52318;SDS011;38258;51.148;14.068;2023-01-09T05:44:36;12.68;;;6.03;;
52318;SDS011;38258;51.148;14.068;2023-01-09T05:47:03;16.90;;;6.82;;
52318;SDS011;38258;51.148;14.068;2023-01-09T05:49:29;15.90;;;7.55;;
52318;SDS011;38258;51.148;14.068;2023-01-09T05:51:57;17.98;;;7.63;;
52318;SDS011;38258;51.148;14.068;2023-01-09T05:54:24;10.77;;;4.15;;
52318;SDS011;38258;51.148;14.068;2023-01-09T05:56:56;9.00;;;4.88;;
52318;SDS011;38258;51.148;14.068;2023-01-09T05:59:22;8.60;;;5.10;;
52318;SDS011;38258;51.148;14.068;2023-01-09T06:01:49;9.93;;;4.75;;
52318;SDS011;38258;51.148;14.068;2023-01-09T06:04:16;13.70;;;6.47;;
52318;SDS011;38258;51.148;14.068;2023-01-09T06:06:42;11.82;;;6.35;;
52318;SDS011;38258;51.148;14.068;2023-01-09T06:09:11;10.43;;;5.57;;
52318;SDS011;38258;51.148;14.068;2023-01-09T06:11:37;12.52;;;6.53;;
52318;SDS011;38258;51.148;14.068;2023-01-09T06:14:04;13.27;;;5.68;;
52318;SDS011;38258;51.148;14.068;2023-01-09T06:16:31;14.35;;;7.38;;
52318;SDS011;38258;51.148;14.068;2023-01-09T06:18:58;13.80;;;5.75;;
52318;SDS011;38258;51.148;14.068;2023-01-09T06:21:25;13.43;;;5.82;;
52318;SDS011;38258;51.148;14.068;2023-01-09T06:23:53;12.15;;;5.25;;
52318;SDS011;38258;51.148;14.068;2023-01-09T06:26:21;17.50;;;6.90;;
52318;SDS011;38258;51.148;14.068;2023-01-09T06:28:48;18.13;;;7.50;;
52318;SDS011;38258;51.148;14.068;2023-01-09T06:31:15;13.57;;;7.07;;
52318;SDS011;38258;51.148;14.068;2023-01-09T06:33:41;6.18;;;4.03;;
52318;SDS011;38258;51.148;14.068;2023-01-09T06:36:08;9.75;;;5.10;;
52318;SDS011;38258;51.148;14.068;2023-01-09T06:38:35;13.48;;;6.78;;
52318;SDS011;38258;51.148;14.068;2023-01-09T06:41:02;12.38;;;7.05;;
52318;SDS011;38258;51.148;14.068;2023-01-09T06:43:30;15.25;;;6.53;;
52318;SDS011;38258;51.148;14.068;2023-01-09T06:45:56;18.30;;;8.27;;
52318;SDS011;38258;51.148;14.068;2023-01-09T06:48:23;15.95;;;7.22;;
52318;SDS011;38258;51.148;14.068;2023-01-09T06:50:50;17.58;;;6.63;;
52318;SDS011;38258;51.148;14.068;2023-01-09T06:53:18;12.82;;;6.28;;
52318;SDS011;38258;51.148;14.068;2023-01-09T06:55:45;8.45;;;4.93;;
52318;SDS011;38258;51.148;14.068;2023-01-09T06:58:12;14.43;;;6.53;;
52318;SDS011;38258;51.148;14.068;2023-01-09T07:00:40;10.73;;;5.78;;
52318;SDS011;38258;51.148;14.068;2023-01-09T07:03:07;16.67;;;7.63;;
52318;SDS011;38258;51.148;14.068;2023-01-09T07:05:36;12.50;;;5.85;;
52318;SDS011;38258;51.148;14.068;2023-01-09T07:08:05;13.40;;;6.97;;
52318;SDS011;38258;51.148;14.068;2023-01-09T07:10:32;15.15;;;7.47;;
52318;SDS011;38258;51.148;14.068;2023-01-09T07:12:59;11.80;;;5.60;;
52318;SDS011;38258;51.148;14.068;2023-01-09T07:15:26;11.65;;;4.88;;
52318;SDS011;38258;51.148;14.068;2023-01-09T07:17:54;14.85;;;6.47;;
52318;SDS011;38258;51.148;14.068;2023-01-09T07:20:20;8.52;;;4.10;;
52318;SDS011;38258;51.148;14.068;2023-01-09T07:22:47;10.77;;;4.47;;
52318;SDS011;38258;51.148;14.068;2023-01-09T07:25:14;9.02;;;5.32;;
52318;SDS011;38258;51.148;14.068;2023-01-09T07:27:40;16.30;;;7.68;;
52318;SDS011;38258;51.148;14.068;2023-01-09T07:30:07;14.63;;;7.03;;
52318;SDS011;38258;51.148;14.068;2023-01-09T07:32:35;13.00;;;6.28;;
52318;SDS011;38258;51.148;14.068;2023-01-09T07:35:04;13.27;;;6.65;;
52318;SDS011;38258;51.148;14.068;2023-01-09T07:37:31;13.45;;;5.65;;
52318;SDS011;38258;51.148;14.068;2023-01-09T07:39:58;12.25;;;5.90;;
52318;SDS011;38258;51.148;14.068;2023-01-09T07:42:25;13.85;;;6.43;;
52318;SDS011;38258;51.148;14.068;2023-01-09T07:44:52;14.40;;;7.50;;
52318;SDS011;38258;51.148;14.068;2023-01-09T07:47:19;9.93;;;6.18;;
52318;SDS011;38258;51.148;14.068;2023-01-09T07:49:45;15.98;;;5.68;;
52318;SDS011;38258;51.148;14.068;2023-01-09T07:52:13;12.98;;;6.10;;
52318;SDS011;38258;51.148;14.068;2023-01-09T07:54:40;14.93;;;7.07;;
52318;SDS011;38258;51.148;14.068;2023-01-09T07:57:07;8.60;;;5.07;;
52318;SDS011;38258;51.148;14.068;2023-01-09T07:59:33;14.43;;;6.18;;
52318;SDS011;38258;51.148;14.068;2023-01-09T08:02:00;14.43;;;6.82;;
52318;SDS011;38258;51.148;14.068;2023-01-09T08:04:29;8.85;;;4.50;;
52318;SDS011;38258;51.148;14.068;2023-01-09T08:06:56;17.67;;;6.28;;
52318;SDS011;38258;51.148;14.068;2023-01-09T08:09:24;11.45;;;6.13;;
52318;SDS011;38258;51.148;14.068;2023-01-09T08:11:51;13.48;;;5.97;;
52318;SDS011;38258;51.148;14.068;2023-01-09T08:14:17;12.15;;;6.25;;
52318;SDS011;38258;51.148;14.068;2023-01-09T08:16:44;10.07;;;5.05;;
52318;SDS011;38258;51.148;14.068;2023-01-09T08:19:11;14.73;;;6.93;;
52318;SDS011;38258;51.148;14.068;2023-01-09T08:21:38;12.80;;;5.03;;
52318;SDS011;38258;51.148;14.068;2023-01-09T08:24:05;18.25;;;6.70;;
52318;SDS011;38258;51.148;14.068;2023-01-09T08:26:33;7.70;;;4.15;;
52318;SDS011;38258;51.148;14.068;2023-01-09T08:29:03;10.45;;;4.07;;
52318;SDS011;38258;51.148;14.068;2023-01-09T08:31:30;12.25;;;6.22;;
52318;SDS011;38258;51.148;14.068;2023-01-09T08:34:02;12.77;;;5.85;;
52318;SDS011;38258;51.148;14.068;2023-01-09T08:36:29;14.43;;;6.13;;
52318;SDS011;38258;51.148;14.068;2023-01-09T08:38:56;15.32;;;6.35;;
52318;SDS011;38258;51.148;14.068;2023-01-09T08:41:24;19.35;;;7.22;;
52318;SDS011;38258;51.148;14.068;2023-01-09T08:44:12;7.35;;;4.65;;
52318;SDS011;38258;51.148;14.068;2023-01-09T08:47:02;14.35;;;6.68;;
52318;SDS011;38258;51.148;14.068;2023-01-09T08:49:32;11.27;;;4.32;;
52318;SDS011;38258;51.148;14.068;2023-01-09T08:52:03;12.73;;;6.25;;
52318;SDS011;38258;51.148;14.068;2023-01-09T08:54:37;8.00;;;4.45;;
52318;SDS011;38258;51.148;14.068;2023-01-09T09:00:05;11.27;;;5.80;;
52318;SDS011;38258;51.148;14.068;2023-01-09T09:02:35;14.90;;;5.68;;
52318;SDS011;38258;51.148;14.068;2023-01-09T09:05:10;16.08;;;7.25;;
52318;SDS011;38258;51.148;14.068;2023-01-09T09:07:54;14.15;;;6.25;;
52318;SDS011;38258;51.148;14.068;2023-01-09T09:10:31;13.80;;;6.70;;
52318;SDS011;38258;51.148;14.068;2023-01-09T09:13:00;14.13;;;6.68;;
52318;SDS011;38258;51.148;14.068;2023-01-09T09:15:31;11.40;;;5.13;;
52318;SDS011;38258;51.148;14.068;2023-01-09T09:17:59;14.75;;;6.38;;
52318;SDS011;38258;51.148;14.068;2023-01-09T09:20:27;14.15;;;6.70;;
52318;SDS011;38258;51.148;14.068;2023-01-09T09:22:56;13.85;;;6.20;;
52318;SDS011;38258;51.148;14.068;2023-01-09T09:25:23;15.80;;;6.22;;
52318;SDS011;38258;51.148;14.068;2023-01-09T09:27:50;17.52;;;7.15;;
52318;SDS011;38258;51.148;14.068;2023-01-09T09:30:22;18.73;;;7.93;;
52318;SDS011;38258;51.148;14.068;2023-01-09T09:32:51;12.88;;;5.95;;
52318;SDS011;38258;51.148;14.068;2023-01-09T09:35:18;11.43;;;5.25;;
52318;SDS011;38258;51.148;14.068;2023-01-09T09:37:51;14.35;;;5.35;;
52318;SDS011;38258;51.148;14.068;2023-01-09T09:40:19;9.18;;;4.05;;
52318;SDS011;38258;51.148;14.068;2023-01-09T09:43:03;15.32;;;5.78;;
52318;SDS011;38258;51.148;14.068;2023-01-09T09:45:59;12.50;;;5.57;;
52318;SDS011;38258;51.148;14.068;2023-01-09T09:48:36;11.77;;;6.57;;
52318;SDS011;38258;51.148;14.068;2023-01-09T09:51:14;9.32;;;4.60;;
52318;SDS011;38258;51.148;14.068;2023-01-09T09:53:58;16.27;;;6.05;;
52318;SDS011;38258;51.148;14.068;2023-01-09T09:56:30;17.30;;;7.22;;
52318;SDS011;38258;51.148;14.068;2023-01-09T09:59:00;14.05;;;6.18;;
52318;SDS011;38258;51.148;14.068;2023-01-09T10:01:32;16.30;;;6.10;;
52318;SDS011;38258;51.148;14.068;2023-01-09T10:04:08;24.80;;;10.13;;
52318;SDS011;38258;51.148;14.068;2023-01-09T10:06:42;28.45;;;11.88;;
52318;SDS011;38258;51.148;14.068;2023-01-09T10:09:16;18.48;;;6.82;;
52318;SDS011;38258;51.148;14.068;2023-01-09T10:11:53;12.32;;;6.82;;
52318;SDS011;38258;51.148;14.068;2023-01-09T10:14:25;13.98;;;6.93;;
52318;SDS011;38258;51.148;14.068;2023-01-09T10:16:57;13.90;;;6.50;;
52318;SDS011;38258;51.148;14.068;2023-01-09T10:19:52;14.38;;;6.38;;
52318;SDS011;38258;51.148;14.068;2023-01-09T10:22:40;12.20;;;6.28;;
52318;SDS011;38258;51.148;14.068;2023-01-09T10:25:19;15.40;;;7.78;;
52318;SDS011;38258;51.148;14.068;2023-01-09T10:27:59;11.80;;;5.75;;
52318;SDS011;38258;51.148;14.068;2023-01-09T10:30:39;11.35;;;5.57;;
52318;SDS011;38258;51.148;14.068;2023-01-09T10:33:16;12.85;;;5.80;;
52318;SDS011;38258;51.148;14.068;2023-01-09T10:36:01;9.18;;;4.90;;
52318;SDS011;38258;51.148;14.068;2023-01-09T10:38:44;9.35;;;4.63;;
52318;SDS011;38258;51.148;14.068;2023-01-09T10:41:17;10.57;;;4.43;;
52318;SDS011;38258;51.148;14.068;2023-01-09T10:43:52;10.30;;;4.00;;
52318;SDS011;38258;51.148;14.068;2023-01-09T10:46:27;6.88;;;3.92;;
52318;SDS011;38258;51.148;14.068;2023-01-09T10:49:04;8.77;;;4.18;;
52318;SDS011;38258;51.148;14.068;2023-01-09T10:51:43;6.88;;;3.20;;
52318;SDS011;38258;51.148;14.068;2023-01-09T10:54:14;5.63;;;2.85;;
52318;SDS011;38258;51.148;14.068;2023-01-09T10:56:45;4.90;;;2.53;;
52318;SDS011;38258;51.148;14.068;2023-01-09T10:59:19;4.85;;;3.08;;
52318;SDS011;38258;51.148;14.068;2023-01-09T11:01:52;5.47;;;2.50;;
52318;SDS011;38258;51.148;14.068;2023-01-09T11:04:22;5.72;;;2.95;;
52318;SDS011;38258;51.148;14.068;2023-01-09T11:06:53;3.63;;;2.28;;
52318;SDS011;38258;51.148;14.068;2023-01-09T11:09:23;4.57;;;2.97;;
52318;SDS011;38258;51.148;14.068;2023-01-09T11:11:52;3.38;;;1.70;;
52318;SDS011;38258;51.148;14.068;2023-01-09T11:14:23;3.75;;;2.60;;
52318;SDS011;38258;51.148;14.068;2023-01-09T11:17:00;4.65;;;3.00;;
52318;SDS011;38258;51.148;14.068;2023-01-09T11:19:28;4.70;;;2.85;;
52318;SDS011;38258;51.148;14.068;2023-01-09T11:22:06;3.80;;;1.85;;
52318;SDS011;38258;51.148;14.068;2023-01-09T11:24:34;3.40;;;2.13;;
52318;SDS011;38258;51.148;14.068;2023-01-09T11:27:22;2.35;;;1.80;;
52318;SDS011;38258;51.148;14.068;2023-01-09T11:30:15;3.65;;;1.90;;
52318;SDS011;38258;51.148;14.068;2023-01-09T11:32:48;2.53;;;1.25;;
52318;SDS011;38258;51.148;14.068;2023-01-09T11:35:16;2.67;;;1.70;;
52318;SDS011;38258;51.148;14.068;2023-01-09T11:37:48;2.28;;;1.33;;
52318;SDS011;38258;51.148;14.068;2023-01-09T11:40:25;2.17;;;1.52;;
52318;SDS011;38258;51.148;14.068;2023-01-09T11:43:02;1.00;;;0.90;;
52318;SDS011;38258;51.148;14.068;2023-01-09T11:45:32;1.50;;;1.23;;
52318;SDS011;38258;51.148;14.068;2023-01-09T11:48:01;1.52;;;1.35;;
52318;SDS011;38258;51.148;14.068;2023-01-09T11:50:41;1.90;;;1.50;;
52318;SDS011;38258;51.148;14.068;2023-01-09T11:53:20;2.20;;;1.08;;
52318;SDS011;38258;51.148;14.068;2023-01-09T11:55:50;2.53;;;1.40;;
52318;SDS011;38258;51.148;14.068;2023-01-09T11:58:21;0.90;;;0.63;;
52318;SDS011;38258;51.148;14.068;2023-01-09T12:00:51;2.28;;;1.40;;
52318;SDS011;38258;51.148;14.068;2023-01-09T12:03:30;1.42;;;0.95;;
52318;SDS011;38258;51.148;14.068;2023-01-09T12:06:11;3.08;;;1.40;;
52318;SDS011;38258;51.148;14.068;2023-01-09T12:08:49;2.72;;;1.25;;
52318;SDS011;38258;51.148;14.068;2023-01-09T12:11:30;1.52;;;1.10;;
52318;SDS011;38258;51.148;14.068;2023-01-09T12:14:11;3.78;;;1.90;;
52318;SDS011;38258;51.148;14.068;2023-01-09T12:16:56;3.40;;;1.70;;
52318;SDS011;38258;51.148;14.068;2023-01-09T12:19:45;2.63;;;1.50;;
52318;SDS011;38258;51.148;14.068;2023-01-09T12:22:27;3.63;;;1.90;;
52318;SDS011;38258;51.148;14.068;2023-01-09T12:27:57;0.65;;;0.65;;
52318;SDS011;38258;51.148;14.068;2023-01-09T12:30:43;1.13;;;0.93;;
52318;SDS011;38258;51.148;14.068;2023-01-09T12:33:22;2.55;;;1.42;;
52318;SDS011;38258;51.148;14.068;2023-01-09T12:36:03;1.60;;;0.90;;
52318;SDS011;38258;51.148;14.068;2023-01-09T12:38:40;1.80;;;0.63;;
52318;SDS011;38258;51.148;14.068;2023-01-09T12:41:27;0.80;;;0.80;;
52318;SDS011;38258;51.148;14.068;2023-01-09T12:47:19;1.10;;;0.90;;
52318;SDS011;38258;51.148;14.068;2023-01-09T12:50:01;0.98;;;0.88;;
52318;SDS011;38258;51.148;14.068;2023-01-09T12:52:35;0.80;;;0.80;;
52318;SDS011;38258;51.148;14.068;2023-01-09T12:55:10;3.72;;;0.68;;
52318;SDS011;38258;51.148;14.068;2023-01-09T12:57:45;0.60;;;0.60;;
52318;SDS011;38258;51.148;14.068;2023-01-09T13:00:20;0.93;;;0.85;;
52318;SDS011;38258;51.148;14.068;2023-01-09T13:02:52;1.42;;;1.00;;
52318;SDS011;38258;51.148;14.068;2023-01-09T13:05:25;2.65;;;0.90;;
52318;SDS011;38258;51.148;14.068;2023-01-09T13:07:58;2.22;;;1.05;;
52318;SDS011;38258;51.148;14.068;2023-01-09T13:10:29;2.67;;;1.17;;
52318;SDS011;38258;51.148;14.068;2023-01-09T13:13:00;1.75;;;0.80;;
52318;SDS011;38258;51.148;14.068;2023-01-09T13:15:36;1.10;;;0.90;;
52318;SDS011;38258;51.148;14.068;2023-01-09T13:18:18;1.10;;;0.85;;
52318;SDS011;38258;51.148;14.068;2023-01-09T13:20:48;0.55;;;0.55;;
52318;SDS011;38258;51.148;14.068;2023-01-09T13:23:39;1.92;;;1.00;;
52318;SDS011;38258;51.148;14.068;2023-01-09T13:26:13;1.52;;;0.90;;
52318;SDS011;38258;51.148;14.068;2023-01-09T13:28:50;3.58;;;0.80;;
52318;SDS011;38258;51.148;14.068;2023-01-09T13:31:37;1.05;;;0.65;;
52318;SDS011;38258;51.148;14.068;2023-01-09T13:34:25;1.38;;;0.80;;
52318;SDS011;38258;51.148;14.068;2023-01-09T13:37:03;1.00;;;0.80;;
52318;SDS011;38258;51.148;14.068;2023-01-09T13:47:20;1.10;;;0.80;;
52318;SDS011;38258;51.148;14.068;2023-01-09T13:50:26;1.20;;;0.95;;
52318;SDS011;38258;51.148;14.068;2023-01-09T13:52:55;2.00;;;1.08;;
52318;SDS011;38258;51.148;14.068;2023-01-09T13:55:29;2.22;;;1.25;;
52318;SDS011;38258;51.148;14.068;2023-01-09T13:58:14;2.85;;;1.30;;
52318;SDS011;38258;51.148;14.068;2023-01-09T14:00:47;1.70;;;1.13;;
52318;SDS011;38258;51.148;14.068;2023-01-09T14:03:21;1.30;;;0.93;;
52318;SDS011;38258;51.148;14.068;2023-01-09T14:06:01;1.75;;;1.17;;
52318;SDS011;38258;51.148;14.068;2023-01-09T14:08:46;3.38;;;1.55;;
52318;SDS011;38258;51.148;14.068;2023-01-09T14:11:18;3.53;;;2.03;;
52318;SDS011;38258;51.148;14.068;2023-01-09T14:13:51;8.15;;;3.65;;
52318;SDS011;38258;51.148;14.068;2023-01-09T14:16:31;3.92;;;1.80;;
52318;SDS011;38258;51.148;14.068;2023-01-09T14:19:03;3.15;;;2.05;;
52318;SDS011;38258;51.148;14.068;2023-01-09T14:21:46;2.08;;;1.20;;
52318;SDS011;38258;51.148;14.068;2023-01-09T14:24:22;1.13;;;0.75;;
52318;SDS011;38258;51.148;14.068;2023-01-09T14:26:54;0.93;;;0.90;;
52318;SDS011;38258;51.148;14.068;2023-01-09T14:29:39;1.02;;;0.85;;
52318;SDS011;38258;51.148;14.068;2023-01-09T14:35:16;5.43;;;1.85;;
52318;SDS011;38258;51.148;14.068;2023-01-09T14:38:02;6.18;;;2.97;;
52318;SDS011;38258;51.148;14.068;2023-01-09T14:40:31;37.60;;;13.80;;
52318;SDS011;38258;51.148;14.068;2023-01-09T14:43:11;27.83;;;11.63;;
52318;SDS011;38258;51.148;14.068;2023-01-09T14:45:42;30.83;;;12.05;;
52318;SDS011;38258;51.148;14.068;2023-01-09T14:48:12;18.92;;;7.53;;
52318;SDS011;38258;51.148;14.068;2023-01-09T14:50:46;17.95;;;7.05;;
52318;SDS011;38258;51.148;14.068;2023-01-09T14:53:19;5.43;;;2.50;;
52318;SDS011;38258;51.148;14.068;2023-01-09T14:55:52;3.97;;;2.50;;
52318;SDS011;38258;51.148;14.068;2023-01-09T14:58:22;2.15;;;1.40;;
52318;SDS011;38258;51.148;14.068;2023-01-09T15:00:51;3.85;;;2.10;;
52318;SDS011;38258;51.148;14.068;2023-01-09T15:05:55;2.05;;;1.10;;
52318;SDS011;38258;51.148;14.068;2023-01-09T15:08:22;1.60;;;1.00;;
52318;SDS011;38258;51.148;14.068;2023-01-09T15:10:54;1.65;;;1.10;;
52318;SDS011;38258;51.148;14.068;2023-01-09T15:13:26;1.52;;;1.02;;
52318;SDS011;38258;51.148;14.068;2023-01-09T15:15:56;3.20;;;1.35;;
52318;SDS011;38258;51.148;14.068;2023-01-09T15:18:26;4.15;;;1.60;;
52318;SDS011;38258;51.148;14.068;2023-01-09T15:20:57;4.22;;;1.73;;
52318;SDS011;38258;51.148;14.068;2023-01-09T15:23:27;5.60;;;2.70;;